Time;durP1;ratioP1;P1;durP2;ratioP2;P2;SDS_P1;SDS_P2;PMS_P1;PMS_P2;Temp;Humidity;BMP_temperature;BMP_pressure;BME280_temperature;BME280_humidity;BME280_pressure;Samples;Min_cycle;Max_cycle;Signal;HPM_P1;HPM_P2
2021/07/28 00:00:33;;;;;;;;;;;;;;;26.59;56.51;100679.47;5086696;28;1184;-64
2021/07/28 00:03:00;;;;;;;;;;;;;;;26.60;55.99;100677.63;5069605;28;1123;-65
2021/07/28 00:05:27;;;;;;;;;;;;;;;26.59;55.32;100681.31;5088054;28;1347;-63
2021/07/28 00:07:53;;;;;;;;;;;;;;;26.58;56.18;100674.25;5087766;28;1099;-64
2021/07/28 00:10:20;;;;;;;;;;;;;;;26.57;55.89;100678.75;5087682;28;1995;-64
2021/07/28 00:12:47;;;;;;;;;;;;;;;26.55;55.12;100671.88;5087949;28;829;-64
2021/07/28 00:15:13;;;;;;;;;;;;;;;26.55;55.26;100669.19;5087937;28;1627;-63
2021/07/28 00:17:46;;;;;;;;;;;;;;;26.54;55.55;100673.69;5088232;28;893;-64
2021/07/28 00:23:16;;;;;;;;;;;;;;;26.51;54.85;100673.97;5087261;28;2176;-64
2021/07/28 00:25:44;;;;;;;;;;;;;;;26.50;54.73;100671.44;5087590;28;1364;-63
2021/07/28 00:28:11;;;;;;;;;;;;;;;26.47;54.70;100667.25;5087850;28;932;-64
2021/07/28 00:30:40;;;;;;;;;;;;;;;26.43;54.50;100648.94;5087849;28;2055;-64
2021/07/28 00:33:07;;;;;;;;;;;;;;;26.50;55.03;100650.94;5069314;28;1206;-63
2021/07/28 00:35:33;;;;;;;;;;;;;;;26.49;54.45;100659.06;5087563;28;1193;-63
2021/07/28 00:38:04;;;;;;;;;;;;;;;26.51;55.17;100657.94;5087884;28;770;-63
2021/07/28 00:40:31;;;;;;;;;;;;;;;26.50;54.52;100650.94;5069619;28;1277;-63
2021/07/28 00:43:08;;;;;;;;;;;;;;;26.46;55.69;100651.34;5091048;28;1362;-63
2021/07/28 00:45:35;;;;;;;;;;;;;;;26.47;54.87;100643.19;5091750;28;1221;-64
2021/07/28 00:48:01;;;;;;;;;;;;;;;26.50;54.79;100645.59;5091665;28;1091;-64
2021/07/28 00:50:28;;;;;;;;;;;;;;;26.48;54.62;100647.53;5091591;28;1909;-64
2021/07/28 00:52:58;;;;;;;;;;;;;;;26.50;54.91;100648.25;5091432;28;952;-64
2021/07/28 00:55:25;;;;;;;;;;;;;;;26.50;55.52;100642.06;5091728;28;1238;-64
2021/07/28 00:57:53;;;;;;;;;;;;;;;26.53;55.08;100644.47;5091410;28;1138;-65
2021/07/28 01:00:20;;;;;;;;;;;;;;;26.50;55.48;100640.25;5091034;28;1222;-64
2021/07/28 01:02:46;;;;;;;;;;;;;;;26.50;55.16;100634.91;5091202;28;808;-64
2021/07/28 01:05:13;;;;;;;;;;;;;;;26.51;55.18;100641.91;5056192;28;1344;-63
2021/07/28 01:07:40;;;;;;;;;;;;;;;26.55;55.23;100642.47;5091371;28;972;-64
2021/07/28 01:10:06;;;;;;;;;;;;;;;26.54;54.91;100630.94;5090842;28;1910;-63
2021/07/28 01:12:34;;;;;;;;;;;;;;;26.55;55.20;100629.97;5091365;28;876;-64
2021/07/28 01:15:02;;;;;;;;;;;;;;;26.53;56.10;100628.44;5091267;28;1220;-65
2021/07/28 01:17:29;;;;;;;;;;;;;;;26.54;56.23;100633.63;5090839;28;782;-64
2021/07/28 01:20:00;;;;;;;;;;;;;;;26.51;56.41;100631.22;5090855;28;1247;-64
2021/07/28 01:22:27;;;;;;;;;;;;;;;26.50;56.41;100636.72;5090720;28;1099;-64
2021/07/28 01:24:53;;;;;;;;;;;;;;;26.53;56.86;100645.31;5090295;28;1319;-64
2021/07/28 01:27:20;;;;;;;;;;;;;;;26.53;57.03;100645.31;5091412;28;1115;-64
2021/07/28 01:29:47;;;;;;;;;;;;;;;26.48;58.13;100649.34;5090867;28;1910;-64
2021/07/28 01:32:14;;;;;;;;;;;;;;;26.49;57.88;100659.06;5091378;28;1319;-64
2021/07/28 01:34:41;;;;;;;;;;;;;;;26.50;57.66;100661.63;5090899;28;1283;-64
2021/07/28 01:37:08;;;;;;;;;;;;;;;26.54;57.96;100663.00;5091284;28;1307;-64
2021/07/28 01:39:34;;;;;;;;;;;;;;;26.53;58.38;100661.34;5091076;28;1189;-64
2021/07/28 01:42:01;;;;;;;;;;;;;;;26.50;57.68;100661.63;5068783;28;1519;-63
2021/07/28 01:44:28;;;;;;;;;;;;;;;26.48;57.24;100662.72;5109793;28;1339;-63
2021/07/28 01:46:55;;;;;;;;;;;;;;;26.49;56.93;100667.09;5111294;28;1210;-63
2021/07/28 01:49:22;;;;;;;;;;;;;;;26.48;56.13;100668.91;5093598;28;1913;-63
2021/07/28 01:51:48;;;;;;;;;;;;;;;26.49;56.20;100675.94;5090629;28;1108;-64
2021/07/28 01:54:15;;;;;;;;;;;;;;;26.47;57.01;100677.06;5090831;28;1199;-64
2021/07/28 01:56:42;;;;;;;;;;;;;;;26.48;56.44;100674.25;5090755;28;1115;-63
2021/07/28 01:59:10;;;;;;;;;;;;;;;26.47;57.02;100677.06;5090499;28;1181;-64
2021/07/28 02:01:37;;;;;;;;;;;;;;;26.42;56.98;100684.63;5090438;28;1171;-64
2021/07/28 02:04:04;;;;;;;;;;;;;;;26.39;57.90;100674.22;5090117;28;1236;-64
2021/07/28 02:06:32;;;;;;;;;;;;;;;26.36;57.70;100672.69;5090187;28;1055;-64
2021/07/28 02:08:58;;;;;;;;;;;;;;;26.43;58.02;100679.16;5071541;28;1189;-64
2021/07/28 02:11:25;;;;;;;;;;;;;;;26.44;58.35;100680.03;5089237;28;1986;-64
2021/07/28 02:13:51;;;;;;;;;;;;;;;26.42;57.44;100684.63;5089223;28;1209;-64
2021/07/28 02:16:18;;;;;;;;;;;;;;;26.41;58.62;100683.81;5089034;28;1018;-64
2021/07/28 02:18:45;;;;;;;;;;;;;;;26.42;58.18;100671.28;5089476;28;1339;-64
2021/07/28 02:21:12;;;;;;;;;;;;;;;26.43;58.82;100672.97;5089171;28;1093;-64
2021/07/28 02:23:41;;;;;;;;;;;;;;;26.40;58.61;100665.25;5089540;28;1246;-64
2021/07/28 02:26:07;;;;;;;;;;;;;;;26.38;59.43;100662.72;5071490;28;1067;-64
2021/07/28 02:28:34;;;;;;;;;;;;;;;26.42;58.82;100661.44;5089502;28;1319;-64
2021/07/28 02:31:01;;;;;;;;;;;;;;;26.41;58.93;100667.78;5089591;28;1912;-63
2021/07/28 02:33:27;;;;;;;;;;;;;;;26.39;58.99;100663.53;5089565;28;777;-63
2021/07/28 02:35:54;;;;;;;;;;;;;;;26.38;59.04;100662.72;5089337;28;870;-64
2021/07/28 02:38:21;;;;;;;;;;;;;;;26.39;59.40;100669.72;5089555;28;832;-64
2021/07/28 02:40:47;;;;;;;;;;;;;;;26.35;59.65;100671.00;5089348;28;1250;-64
2021/07/28 02:43:14;;;;;;;;;;;;;;;26.42;58.51;100673.94;5089284;28;1623;-64
2021/07/28 02:45:41;;;;;;;;;;;;;;;26.39;58.63;100669.72;5089427;28;1256;-64
2021/07/28 02:48:07;;;;;;;;;;;;;;;26.38;56.91;100668.06;5089364;28;1040;-64
2021/07/28 02:50:34;;;;;;;;;;;;;;;26.33;59.50;100666.78;5070638;28;1979;-64
2021/07/28 02:53:01;;;;;;;;;;;;;;;26.31;57.66;100669.59;5071239;28;901;-64
2021/07/28 02:55:28;;;;;;;;;;;;;;;26.34;58.55;100660.47;5089029;28;1231;-64
2021/07/28 02:57:54;;;;;;;;;;;;;;;26.34;58.42;100665.81;5088993;28;801;-63
2021/07/28 03:00:21;;;;;;;;;;;;;;;26.34;58.70;100668.47;5088994;28;1224;-63
2021/07/28 03:02:48;;;;;;;;;;;;;;;26.33;58.34;100658.75;5089823;28;1088;-63
2021/07/28 03:05:14;;;;;;;;;;;;;;;26.34;58.48;100650.63;5107214;28;1278;-63
2021/07/28 03:07:41;;;;;;;;;;;;;;;26.31;58.98;100658.91;5089457;28;1110;-64
2021/07/28 03:10:08;;;;;;;;;;;;;;;26.28;59.31;100661.00;5054283;28;1981;-64
2021/07/28 03:12:35;;;;;;;;;;;;;;;26.28;59.42;100661.84;5070716;28;1067;-65
2021/07/28 03:15:02;;;;;;;;;;;;;;;26.27;58.45;100662.81;5088812;28;1312;-65
2021/07/28 03:17:28;;;;;;;;;;;;;;;26.23;58.92;100666.78;5070654;28;876;-63
2021/07/28 03:19:56;;;;;;;;;;;;;;;26.26;58.70;100666.50;5070225;28;1271;-64
2021/07/28 03:22:24;;;;;;;;;;;;;;;26.26;58.64;100663.00;5088742;28;1198;-64
2021/07/28 03:24:51;;;;;;;;;;;;;;;26.27;59.17;100668.16;5088791;28;1232;-64
2021/07/28 03:27:17;;;;;;;;;;;;;;;26.26;58.78;100671.00;5089043;28;1431;-64
2021/07/28 03:29:44;;;;;;;;;;;;;;;26.26;58.82;100682.53;5087942;28;1976;-64
2021/07/28 03:32:10;;;;;;;;;;;;;;;26.25;57.92;100680.81;5070255;28;1192;-64
2021/07/28 03:34:38;;;;;;;;;;;;;;;26.25;57.58;100675.47;5088655;28;1267;-64
2021/07/28 03:37:05;;;;;;;;;;;;;;;26.22;57.47;100677.59;5070369;28;1334;-64
2021/07/28 03:39:32;;;;;;;;;;;;;;;26.21;57.59;100675.88;5070307;28;1220;-64
2021/07/28 03:41:58;;;;;;;;;;;;;;;26.24;56.94;100670.25;5066397;28;1627;-64
2021/07/28 03:44:30;;;;;;;;;;;;;;;26.21;56.31;100682.06;5066657;28;1371;-64
2021/07/28 03:46:56;;;;;;;;;;;;;;;26.14;56.94;100680.91;5067991;28;1122;-64
2021/07/28 03:49:23;;;;;;;;;;;;;;;26.11;56.69;100678.53;5100502;28;1367;-65
2021/07/28 03:51:50;;;;;;;;;;;;;;;26.15;55.77;100681.72;5068458;28;1905;-64
2021/07/28 03:54:16;;;;;;;;;;;;;;;26.08;56.91;100686.81;5068255;28;1209;-64
2021/07/28 03:56:43;;;;;;;;;;;;;;;26.17;56.35;100678.00;5066823;28;1066;-64
2021/07/28 03:59:10;;;;;;;;;;;;;;;26.20;56.38;100690.22;5066386;28;1291;-65
2021/07/28 04:01:36;;;;;;;;;;;;;;;26.15;56.88;100690.63;5068421;28;940;-65
2021/07/28 04:04:03;;;;;;;;;;;;;;;26.19;56.08;100688.53;5067882;28;1283;-65
2021/07/28 04:06:30;;;;;;;;;;;;;;;26.19;55.70;100693.88;5068364;28;1156;-64
2021/07/28 04:08:57;;;;;;;;;;;;;;;26.23;56.38;100692.63;5068273;28;1285;-64
2021/07/28 04:11:23;;;;;;;;;;;;;;;26.18;56.21;100690.34;5099219;28;1989;-64
2021/07/28 04:13:50;;;;;;;;;;;;;;;26.17;56.37;100696.69;5068158;28;1350;-64
2021/07/28 04:16:18;;;;;;;;;;;;;;;26.17;55.83;100688.69;5067168;28;910;-65
2021/07/28 04:18:45;;;;;;;;;;;;;;;26.18;56.16;100694.84;5066175;28;1211;-64
2021/07/28 04:21:12;;;;;;;;;;;;;;;26.20;55.35;100699.09;5067903;28;1026;-63
2021/07/28 04:23:38;;;;;;;;;;;;;;;26.16;55.88;100707.50;5067567;28;1240;-64
2021/07/28 04:26:05;;;;;;;;;;;;;;;26.15;55.03;100709.31;5067811;28;1041;-64
2021/07/28 04:28:32;;;;;;;;;;;;;;;26.13;55.73;100697.91;5067420;28;1219;-64
2021/07/28 04:30:58;;;;;;;;;;;;;;;26.08;55.01;100703.63;5067303;28;1910;-64
2021/07/28 04:33:25;;;;;;;;;;;;;;;26.08;55.09;100703.63;5067404;28;775;-64
2021/07/28 04:35:52;;;;;;;;;;;;;;;26.06;55.26;100694.06;5067458;28;1342;-64
2021/07/28 04:38:19;;;;;;;;;;;;;;;26.08;54.90;100697.47;5067259;28;859;-64
2021/07/28 04:40:45;;;;;;;;;;;;;;;26.05;54.61;100700.41;5067188;28;1315;-64
2021/07/28 04:43:12;;;;;;;;;;;;;;;26.04;54.27;100701.38;5065040;28;1675;-64
2021/07/28 04:45:39;;;;;;;;;;;;;;;26.02;54.35;100709.50;5067585;28;1209;-65
2021/07/28 04:48:07;;;;;;;;;;;;;;;26.00;54.59;100707.97;5099582;28;1483;-64
2021/07/28 04:50:33;;;;;;;;;;;;;;;26.01;54.03;100713.19;5067171;28;1895;-64
2021/07/28 04:53:00;;;;;;;;;;;;;;;26.01;53.84;100707.00;5065595;28;1534;-65
2021/07/28 04:55:27;;;;;;;;;;;;;;;25.98;54.20;100712.59;5067075;28;1217;-65
2021/07/28 04:57:54;;;;;;;;;;;;;;;26.01;53.98;100709.66;5067343;28;1126;-65
2021/07/28 05:00:20;;;;;;;;;;;;;;;26.02;53.41;100711.38;5067427;28;1227;-64
2021/07/28 05:02:47;;;;;;;;;;;;;;;26.00;53.88;100707.97;5065627;28;1212;-64
2021/07/28 05:05:14;;;;;;;;;;;;;;;25.99;53.68;100717.78;5067235;28;1314;-65
2021/07/28 05:07:44;;;;;;;;;;;;;;;26.01;53.68;100713.19;5065900;28;865;-64
2021/07/28 05:10:11;;;;;;;;;;;;;;;25.99;53.77;100711.63;5067080;28;1983;-64
2021/07/28 05:12:38;;;;;;;;;;;;;;;26.02;53.81;100719.38;5067159;28;818;-64
2021/07/28 05:15:05;;;;;;;;;;;;;;;25.98;53.61;100723.28;5067626;28;1188;-64
2021/07/28 05:17:31;;;;;;;;;;;;;;;25.97;53.61;100726.91;5067091;28;1252;-65
2021/07/28 05:19:58;;;;;;;;;;;;;;;26.01;53.27;100731.88;5064908;28;1184;-64
2021/07/28 05:22:25;;;;;;;;;;;;;;;25.97;53.51;100727.78;5065190;28;758;-65
2021/07/28 05:24:52;;;;;;;;;;;;;;;25.97;53.70;100732.25;5066671;28;1213;-64
2021/07/28 05:27:19;;;;;;;;;;;;;;;26.00;53.42;100734.66;5067721;28;1153;-65
2021/07/28 05:29:45;;;;;;;;;;;;;;;26.00;53.73;100743.50;5070516;28;1205;-64
2021/07/28 05:32:12;;;;;;;;;;;;;;;26.06;53.64;100752.81;5070581;28;1902;-65
2021/07/28 05:34:39;;;;;;;;;;;;;;;26.00;53.90;100743.50;5069906;28;1414;-65
2021/07/28 05:37:05;;;;;;;;;;;;;;;26.02;53.60;100751.41;5102875;28;2326;-65
2021/07/28 05:39:32;;;;;;;;;;;;;;;26.02;54.13;100752.22;5070655;28;1329;-65
2021/07/28 05:41:59;;;;;;;;;;;;;;;26.03;53.95;100753.91;5074520;28;1454;-65
2021/07/28 05:44:28;;;;;;;;;;;;;;;26.05;54.11;100751.94;5090961;28;1233;-64
2021/07/28 05:46:55;;;;;;;;;;;;;;;25.99;54.71;100757.81;5090301;28;1033;-65
2021/07/28 05:49:22;;;;;;;;;;;;;;;26.04;54.47;100760.09;5090567;28;1209;-65
2021/07/28 05:51:49;;;;;;;;;;;;;;;26.00;54.51;100758.69;5090840;28;1910;-64
2021/07/28 05:54:15;;;;;;;;;;;;;;;26.01;54.65;100768.38;5072466;28;1262;-67
2021/07/28 05:56:42;;;;;;;;;;;;;;;26.01;54.75;100755.88;5090906;28;1130;-68
2021/07/28 05:59:09;;;;;;;;;;;;;;;26.02;54.67;100762.06;5090484;28;1288;-67
2021/07/28 06:01:35;;;;;;;;;;;;;;;26.05;54.68;100759.97;5094202;28;1138;-66
2021/07/28 06:04:03;;;;;;;;;;;;;;;25.98;54.51;100756.16;5098015;28;1247;-66
2021/07/28 06:06:29;;;;;;;;;;;;;;;26.09;54.08;100755.19;5086294;28;1124;-66
2021/07/28 06:08:56;;;;;;;;;;;;;;;26.11;54.40;100755.94;5072082;28;1230;-66
2021/07/28 06:11:23;;;;;;;;;;;;;;;26.06;54.62;100756.31;5089911;28;1983;-66
2021/07/28 06:13:50;;;;;;;;;;;;;;;26.09;54.54;100755.19;5089339;28;1223;-66
2021/07/28 06:16:17;;;;;;;;;;;;;;;26.12;54.20;100757.59;5089889;28;1002;-66
2021/07/28 06:18:44;;;;;;;;;;;;;;;26.13;54.67;100764.66;5089565;28;1311;-67
2021/07/28 06:21:11;;;;;;;;;;;;;;;26.15;54.57;100768.03;5089854;28;1040;-66
2021/07/28 06:23:37;;;;;;;;;;;;;;;26.17;55.15;100776.78;5089636;28;1228;-67
2021/07/28 06:26:04;;;;;;;;;;;;;;;26.14;55.73;100770.84;5089723;28;1037;-67
2021/07/28 06:28:32;;;;;;;;;;;;;;;26.09;56.12;100773.88;5070919;28;1299;-68
2021/07/28 06:30:59;;;;;;;;;;;;;;;26.12;56.10;100778.09;5089775;28;1925;-67
2021/07/28 06:33:26;;;;;;;;;;;;;;;26.14;55.64;100776.16;5071514;28;1188;-66
2021/07/28 06:35:53;;;;;;;;;;;;;;;26.15;56.20;100781.41;5070991;28;1236;-67
2021/07/28 06:38:20;;;;;;;;;;;;;;;26.16;56.04;100788.44;5089613;28;853;-67
2021/07/28 06:40:47;;;;;;;;;;;;;;;26.09;56.48;100780.06;5054491;28;1341;-67
2021/07/28 06:43:14;;;;;;;;;;;;;;;26.19;55.66;100790.84;5088653;28;1461;-66
2021/07/28 06:45:40;;;;;;;;;;;;;;;26.19;56.46;100796.19;5070648;28;1299;-67
2021/07/28 06:48:07;;;;;;;;;;;;;;;26.14;56.84;100803.72;5088375;28;790;-67
2021/07/28 06:50:34;;;;;;;;;;;;;;;26.16;55.92;100806.28;5088526;28;1913;-66
2021/07/28 06:53:01;;;;;;;;;;;;;;;26.17;56.11;100797.28;5088220;28;1142;-67
2021/07/28 06:55:28;;;;;;;;;;;;;;;26.16;56.30;100811.63;5087746;28;1554;-66
2021/07/28 06:57:55;;;;;;;;;;;;;;;26.14;56.06;100806.38;5088579;28;746;-67
2021/07/28 07:00:22;;;;;;;;;;;;;;;26.21;56.03;100807.56;5088311;28;1228;-69
2021/07/28 07:02:48;;;;;;;;;;;;;;;26.16;56.23;100812.47;5088878;28;810;-67
2021/07/28 07:05:15;;;;;;;;;;;;;;;26.17;55.95;100814.16;5088270;28;1208;-68
2021/07/28 07:07:42;;;;;;;;;;;;;;;26.19;55.89;100817.53;5087297;28;1285;-68
2021/07/28 07:10:09;;;;;;;;;;;;;;;26.19;55.69;100822.03;5087722;28;1209;-67
2021/07/28 07:12:36;;;;;;;;;;;;;;;26.19;55.59;100822.88;5070053;28;1980;-67
2021/07/28 07:15:03;;;;;;;;;;;;;;;26.18;55.89;100826.50;5069465;28;1573;-68
2021/07/28 07:17:29;;;;;;;;;;;;;;;26.21;55.76;100826.25;5069515;28;834;-66
2021/07/28 07:19:57;;;;;;;;;;;;;;;26.19;56.02;100832.69;5087984;28;1315;-68
2021/07/28 07:22:24;;;;;;;;;;;;;;;26.27;55.77;100832.88;5087889;28;1033;-67
2021/07/28 07:24:50;;;;;;;;;;;;;;;26.22;56.02;100832.44;5069553;28;1232;-67
2021/07/28 07:27:17;;;;;;;;;;;;;;;26.23;55.87;100836.81;5088297;28;1079;-68
2021/07/28 07:29:46;;;;;;;;;;;;;;;26.25;55.65;100846.38;5088590;28;1298;-67
2021/07/28 07:32:12;;;;;;;;;;;;;;;26.23;55.30;100850.16;5088881;28;1909;-67
2021/07/28 07:34:39;;;;;;;;;;;;;;;26.18;54.86;100845.19;5088303;28;1521;-64
2021/07/28 07:37:06;;;;;;;;;;;;;;;26.16;54.85;100849.84;5088111;28;1538;-64
2021/07/28 07:39:32;;;;;;;;;;;;;;;26.23;54.04;100861.69;5077545;28;1601;-65
2021/07/28 07:41:59;;;;;;;;;;;;;;;26.18;54.35;100863.88;5088694;28;1194;-64
2021/07/28 07:44:26;;;;;;;;;;;;;;;26.18;54.18;100857.69;5087278;28;1288;-63
2021/07/28 07:46:53;;;;;;;;;;;;;;;26.18;54.08;100857.69;5074947;28;1276;-63
2021/07/28 07:49:20;;;;;;;;;;;;;;;26.24;53.71;100851.81;5076156;28;1303;-64
2021/07/28 07:51:46;;;;;;;;;;;;;;;26.28;53.32;100864.78;5087603;28;1905;-63
2021/07/28 07:54:13;;;;;;;;;;;;;;;26.29;53.32;100855.81;5086978;28;1228;-66
2021/07/28 07:56:40;;;;;;;;;;;;;;;26.30;53.21;100864.66;5091400;28;1292;-64
2021/07/28 07:59:06;;;;;;;;;;;;;;;26.37;53.67;100855.13;5086971;28;1259;-62
2021/07/28 08:01:33;;;;;;;;;;;;;;;26.34;53.46;100847.38;5087315;28;1205;-64
2021/07/28 08:04:00;;;;;;;;;;;;;;;26.36;53.47;100851.59;5065740;28;1347;-65
2021/07/28 08:06:27;;;;;;;;;;;;;;;26.40;52.95;100849.53;5087321;28;1256;-63
2021/07/28 08:08:54;;;;;;;;;;;;;;;26.37;53.53;100847.97;5086672;28;1358;-62
2021/07/28 08:11:20;;;;;;;;;;;;;;;26.36;53.37;100851.59;5083602;28;2016;-64
2021/07/28 08:13:47;;;;;;;;;;;;;;;26.39;53.55;100862.03;5067767;28;1623;-62
2021/07/28 08:16:22;;;;;;;;;;;;;;;26.43;53.10;100849.25;5076409;28;1288;-65
2021/07/28 08:18:50;;;;;;;;;;;;;;;26.46;53.26;100841.81;5084475;28;1330;-65
2021/07/28 08:21:17;;;;;;;;;;;;;;;26.45;53.60;100850.81;5086690;28;1280;-66
2021/07/28 08:23:45;;;;;;;;;;;;;;;26.44;53.81;100849.13;5086819;28;1366;-64
2021/07/28 08:26:15;;;;;;;;;;;;;;;26.44;54.08;100859.81;5086695;28;1133;-63
2021/07/28 08:28:42;;;;;;;;;;;;;;;26.47;54.03;100854.22;5084298;28;1276;-62
2021/07/28 08:31:09;;;;;;;;;;;;;;;26.52;53.65;100857.31;5087032;28;1913;-64
2021/07/28 08:33:36;;;;;;;;;;;;;;;26.52;53.06;100849.28;5057408;28;1233;-63
2021/07/28 08:36:03;;;;;;;;;;;;;;;26.54;53.10;100847.31;5086582;28;1237;-61
2021/07/28 08:38:31;;;;;;;;;;;;;;;26.65;52.91;100850.88;5086966;28;1307;-61
2021/07/28 08:41:03;;;;;;;;;;;;;;;26.61;52.82;100844.97;5086901;28;1229;-62
2021/07/28 08:43:31;;;;;;;;;;;;;;;26.55;53.13;100846.34;5075969;28;1741;-62
2021/07/28 08:45:59;;;;;;;;;;;;;;;26.56;52.92;100856.06;5058996;28;1339;-62
2021/07/28 08:48:29;;;;;;;;;;;;;;;26.55;53.01;100854.38;5076030;28;1232;-62
2021/07/28 08:50:57;;;;;;;;;;;;;;;26.51;53.37;100850.25;5068211;28;1245;-62
2021/07/28 08:53:23;;;;;;;;;;;;;;;26.54;53.35;100855.34;5083597;28;1985;-63
2021/07/28 08:55:54;;;;;;;;;;;;;;;26.52;53.78;100867.16;5086245;28;1288;-62
2021/07/28 08:58:22;;;;;;;;;;;;;;;26.56;53.81;100866.75;5075003;28;1130;-62
2021/07/28 09:00:49;;;;;;;;;;;;;;;26.56;53.62;100858.75;5086279;28;1221;-62
2021/07/28 09:03:16;;;;;;;;;;;;;;;26.58;54.08;100867.47;5088527;28;1186;-62
2021/07/28 09:05:44;;;;;;;;;;;;;;;26.58;53.39;100856.78;5090059;28;1344;-63
2021/07/28 09:08:23;;;;;;;;;;;;;;;26.53;53.30;100864.34;5090015;28;1241;-62
2021/07/28 09:10:55;;;;;;;;;;;;;;;26.58;53.37;100862.13;5088190;28;1271;-61
2021/07/28 09:13:26;;;;;;;;;;;;;;;26.56;53.61;100864.09;5090263;28;1902;-62
2021/07/28 09:15:55;;;;;;;;;;;;;;;26.57;53.66;100860.41;5090308;28;1436;-62
2021/07/28 09:18:35;;;;;;;;;;;;;;;26.56;53.69;100856.06;5060729;28;1348;-63
2021/07/28 09:21:04;;;;;;;;;;;;;;;26.59;53.56;100876.31;5090241;28;1233;-62
2021/07/28 09:23:38;;;;;;;;;;;;;;;26.60;53.63;100864.63;5079710;28;1261;-62
2021/07/28 09:26:25;;;;;;;;;;;;;;;26.60;53.51;100869.97;5080673;28;1343;-61
2021/07/28 09:29:02;;;;;;;;;;;;;;;26.63;53.97;100871.56;5077629;28;1301;-61
2021/07/28 09:31:36;;;;;;;;;;;;;;;26.58;53.85;100863.94;5087538;28;1980;-61
2021/07/28 09:34:21;;;;;;;;;;;;;;;26.63;53.87;100864.38;5070860;28;1276;-61
2021/07/28 09:36:52;;;;;;;;;;;;;;;26.61;54.01;100875.19;5086168;28;1213;-62
2021/07/28 09:39:25;;;;;;;;;;;;;;;26.63;53.80;100878.56;5079253;28;1300;-61
2021/07/28 09:41:53;;;;;;;;;;;;;;;26.63;54.09;100884.91;5086761;28;1327;-62
2021/07/28 09:44:24;;;;;;;;;;;;;;;26.64;54.08;100868.72;5089233;28;1336;-61
2021/07/28 09:47:07;;;;;;;;;;;;;;;26.68;54.36;100880.00;5089563;28;1240;-61
2021/07/28 09:49:34;;;;;;;;;;;;;;;26.63;54.42;100870.56;5086839;28;1313;-62
2021/07/28 09:52:20;;;;;;;;;;;;;;;26.66;54.48;100880.13;5089570;28;1985;-62
2021/07/28 09:54:47;;;;;;;;;;;;;;;26.65;54.45;100893.63;5088613;28;1374;-61
2021/07/28 09:57:20;;;;;;;;;;;;;;;26.65;54.76;100888.28;5086922;28;1170;-62
2021/07/28 09:59:52;;;;;;;;;;;;;;;26.65;54.83;100885.63;5070966;28;1448;-62
2021/07/28 10:02:22;;;;;;;;;;;;;;;26.67;54.68;100891.66;5068662;28;1337;-61
2021/07/28 10:04:51;;;;;;;;;;;;;;;26.69;54.89;100881.72;5070452;28;1311;-63
2021/07/28 10:07:23;;;;;;;;;;;;;;;26.70;54.47;100888.72;5070637;28;1574;-62
2021/07/28 10:10:10;;;;;;;;;;;;;;;26.69;54.83;100889.72;5088669;28;1323;-62
2021/07/28 10:12:39;;;;;;;;;;;;;;;26.69;54.36;100887.06;5086422;28;2007;-62
2021/07/28 10:15:08;;;;;;;;;;;;;;;26.70;54.57;100883.38;5088685;28;1280;-62
2021/07/28 10:17:37;;;;;;;;;;;;;;;26.69;55.00;100887.88;5088691;28;1431;-62
2021/07/28 10:20:09;;;;;;;;;;;;;;;26.75;54.76;100883.84;5070623;28;1337;-63
2021/07/28 10:22:37;;;;;;;;;;;;;;;26.73;54.88;100885.78;5088712;28;1287;-63
2021/07/28 10:25:16;;;;;;;;;;;;;;;26.78;53.91;100883.56;5078056;28;1371;-62
2021/07/28 10:27:49;;;;;;;;;;;;;;;26.76;54.45;100885.50;5088391;28;1249;-62
2021/07/28 10:30:19;;;;;;;;;;;;;;;26.78;54.35;100888.91;5088067;28;1355;-62
2021/07/28 10:32:46;;;;;;;;;;;;;;;26.80;53.80;100887.81;5088516;28;1909;-62
2021/07/28 10:35:16;;;;;;;;;;;;;;;26.83;53.64;100889.38;5088222;28;1304;-62
2021/07/28 10:37:44;;;;;;;;;;;;;;;26.80;54.01;100879.81;5087387;28;1295;-62
2021/07/28 10:40:26;;;;;;;;;;;;;;;26.81;53.96;100883.31;5077102;28;1327;-62
2021/07/28 10:42:55;;;;;;;;;;;;;;;26.82;53.84;100882.31;5087692;28;1572;-61
2021/07/28 10:45:23;;;;;;;;;;;;;;;26.84;54.03;100888.41;5080427;28;1362;-62
2021/07/28 10:47:53;;;;;;;;;;;;;;;26.86;54.70;100887.28;5096304;28;1252;-64
2021/07/28 10:50:20;;;;;;;;;;;;;;;26.85;54.57;100890.06;5084457;28;1666;-64
2021/07/28 10:52:48;;;;;;;;;;;;;;;26.63;53.77;100886.59;5090375;28;1977;-64
2021/07/28 10:55:16;;;;;;;;;;;;;;;26.47;52.78;100890.75;5087469;28;1359;-64
2021/07/28 10:57:45;;;;;;;;;;;;;;;26.39;52.11;100888.72;5086910;28;1153;-64
2021/07/28 11:00:13;;;;;;;;;;;;;;;26.30;51.43;100889.53;5085860;28;1224;-65
2021/07/28 11:02:52;;;;;;;;;;;;;;;26.25;51.27;100890.91;5084270;28;1284;-64
2021/07/28 11:05:20;;;;;;;;;;;;;;;26.23;50.71;100892.88;5086849;28;1275;-64
2021/07/28 11:07:58;;;;;;;;;;;;;;;26.23;50.72;100904.41;5088745;28;1209;-66
2021/07/28 11:10:26;;;;;;;;;;;;;;;26.12;50.37;100888.41;5084593;28;1370;-65
2021/07/28 11:12:52;;;;;;;;;;;;;;;26.12;49.93;100895.56;5086695;28;1917;-64
2021/07/28 11:15:19;;;;;;;;;;;;;;;26.08;49.92;100895.00;5086727;28;1299;-64
2021/07/28 11:17:51;;;;;;;;;;;;;;;26.15;49.95;100890.84;5087365;28;1272;-65
2021/07/28 11:20:27;;;;;;;;;;;;;;;26.14;50.06;100904.31;5090972;27;1307;-67
2021/07/28 11:23:12;;;;;;;;;;;;;;;26.09;49.97;100902.88;5093574;28;1764;-65
2021/07/28 11:25:39;;;;;;;;;;;;;;;26.11;49.83;100899.25;5087406;28;1259;-63
2021/07/28 11:28:06;;;;;;;;;;;;;;;26.02;49.99;100890.19;5086669;28;1186;-65
2021/07/28 11:30:33;;;;;;;;;;;;;;;25.99;49.62;100890.47;5086795;28;1271;-64
2021/07/28 11:33:13;;;;;;;;;;;;;;;25.97;49.70;100890.56;5057384;28;1988;-64
2021/07/28 11:35:40;;;;;;;;;;;;;;;25.90;49.39;100888.56;5085949;28;1228;-66
2021/07/28 11:38:17;;;;;;;;;;;;;;;25.88;49.48;100887.84;5086270;28;1026;-64
2021/07/28 11:40:44;;;;;;;;;;;;;;;25.92;49.42;100895.47;5082116;28;1506;-64
2021/07/28 11:43:31;;;;;;;;;;;;;;;25.91;49.28;100898.25;5084156;28;1172;-63
2021/07/28 11:45:59;;;;;;;;;;;;;;;25.88;49.29;100888.69;5086616;28;1214;-65
2021/07/28 11:48:26;;;;;;;;;;;;;;;25.86;48.76;100895.13;5081899;28;1261;-64
2021/07/28 11:50:53;;;;;;;;;;;;;;;25.74;49.16;100891.69;5081530;28;1283;-67
2021/07/28 11:53:25;;;;;;;;;;;;;;;25.80;49.01;100888.50;5085625;28;1995;-65
2021/07/28 11:56:04;;;;;;;;;;;;;;;25.78;48.90;100887.75;5086300;28;1243;-65
2021/07/28 11:58:31;;;;;;;;;;;;;;;25.77;48.67;100893.25;5095060;27;2495;-63
2021/07/28 12:00:58;;;;;;;;;;;;;;;25.79;48.53;100899.28;5086221;28;1252;-64
2021/07/28 12:03:26;;;;;;;;;;;;;;;25.74;48.81;100894.34;5083324;28;1225;-66
2021/07/28 12:06:02;;;;;;;;;;;;;;;25.72;48.56;100904.28;5076552;28;1354;-65
2021/07/28 12:08:29;;;;;;;;;;;;;;;25.77;48.60;100904.78;5084552;28;1119;-66
2021/07/28 12:11:09;;;;;;;;;;;;;;;25.74;48.09;100904.16;5085150;28;1252;-65
2021/07/28 12:13:47;;;;;;;;;;;;;;;25.74;48.36;100897.03;5084211;28;1921;-65
2021/07/28 12:16:14;;;;;;;;;;;;;;;25.66;48.47;100910.13;5085684;28;1214;-65
2021/07/28 12:18:46;;;;;;;;;;;;;;;25.73;48.18;100897.97;5051727;28;1307;-64
2021/07/28 12:21:14;;;;;;;;;;;;;;;25.72;47.96;100892.75;5059271;28;1218;-62
2021/07/28 12:23:50;;;;;;;;;;;;;;;25.75;47.75;100897.84;5050873;28;1393;-66
2021/07/28 12:26:37;;;;;;;;;;;;;;;25.72;47.86;100893.63;5086374;28;1201;-67
2021/07/28 12:29:04;;;;;;;;;;;;;;;25.74;47.71;100896.16;5082676;28;2283;-69
2021/07/28 12:31:30;;;;;;;;;;;;;;;25.77;47.42;100901.25;5078986;28;1300;-67
2021/07/28 12:34:16;;;;;;;;;;;;;;;25.71;47.60;100905.28;5084625;28;1983;-68
2021/07/28 12:36:43;;;;;;;;;;;;;;;25.72;47.46;100900.75;5085656;28;1273;-66
2021/07/28 12:39:09;;;;;;;;;;;;;;;25.68;48.07;100896.69;5080463;28;1369;-65
2021/07/28 12:41:37;;;;;;;;;;;;;;;25.67;47.67;100892.31;5080001;28;1632;-67
2021/07/28 12:44:04;;;;;;;;;;;;;;;25.64;47.72;100896.09;5071587;28;1448;-68
2021/07/28 12:46:31;;;;;;;;;;;;;;;25.70;47.70;100897.38;5090288;28;1194;-67
2021/07/28 12:48:58;;;;;;;;;;;;;;;25.64;48.02;100896.09;5067552;28;1320;-68
2021/07/28 12:51:24;;;;;;;;;;;;;;;25.62;48.16;100894.53;5087979;28;1272;-69
2021/07/28 12:53:51;;;;;;;;;;;;;;;25.60;48.23;100896.47;5089567;28;1989;-68
2021/07/28 12:56:18;;;;;;;;;;;;;;;25.61;48.06;100890.16;5088910;28;1280;-69